createdAt,value
2018-10-09T00:00:47.825Z,48.5
2018-10-09T00:01:48.555Z,52.5
2018-10-09T00:02:49.733Z,54.3
2018-10-09T00:03:50.450Z,55.9
2018-10-09T00:04:51.577Z,55.1
2018-10-09T00:05:52.333Z,52.5
2018-10-09T00:06:53.095Z,55.0
2018-10-09T00:07:54.227Z,55.2
2018-10-09T00:08:54.950Z,51.9
2018-10-09T00:09:55.823Z,54.0
2018-10-09T00:10:56.658Z,51.7
2018-10-09T00:11:57.744Z,52.6
2018-10-09T00:12:58.480Z,53.3
2018-10-09T00:13:59.270Z,49.5
2018-10-09T00:15:00.005Z,53.5
2018-10-09T00:16:00.922Z,52.6
2018-10-09T00:17:02.158Z,56.6
2018-10-09T00:18:02.981Z,56.5
2018-10-09T00:19:03.692Z,52.7
2018-10-09T00:20:04.402Z,55.4
2018-10-09T00:21:05.133Z,56.7
2018-10-09T00:22:05.854Z,56.1
2018-10-09T00:23:06.567Z,52.5
2018-10-09T00:24:07.294Z,51.9
2018-10-09T00:25:08.040Z,52.4
2018-10-09T00:26:08.861Z,47.0
2018-10-09T00:27:09.504Z,51.6
2018-10-09T00:28:10.237Z,54.2
2018-10-09T00:29:10.957Z,50.3
2018-10-09T00:30:11.675Z,46.5
2018-10-09T00:31:12.385Z,54.7
2018-10-09T00:32:13.116Z,47.4
2018-10-09T00:33:13.848Z,45.8
2018-10-09T00:34:14.553Z,47.5
2018-10-09T00:35:15.514Z,47.0
2018-10-09T00:36:16.537Z,46.1
2018-10-09T00:37:17.237Z,44.5
2018-10-09T00:38:18.211Z,42.8
2018-10-09T00:39:18.928Z,41.3
2018-10-09T00:40:19.649Z,44.9
2018-10-09T00:41:20.368Z,46.4
2018-10-09T00:42:21.082Z,40.3
2018-10-09T00:43:21.797Z,46.3
2018-10-09T00:44:22.521Z,39.4
2018-10-09T00:45:23.234Z,39.9
2018-10-09T00:46:23.947Z,39.6
2018-10-09T00:47:24.662Z,37.9
2018-10-09T00:48:25.366Z,40.6
2018-10-09T00:49:26.087Z,43.2
2018-10-09T00:50:26.798Z,39.0
2018-10-09T00:51:27.528Z,34.7
2018-10-09T00:52:28.240Z,35.8
2018-10-09T00:53:28.958Z,32.8
2018-10-09T00:54:29.692Z,35.2
2018-10-09T00:55:30.468Z,40.1
2018-10-09T00:56:31.190Z,37.4
2018-10-09T00:57:31.900Z,41.6
2018-10-09T00:58:32.613Z,38.3
2018-10-09T00:59:33.332Z,34.9
2018-10-09T01:00:34.096Z,35.7
2018-10-09T01:01:34.814Z,52.7
2018-10-09T01:02:35.777Z,42.6
2018-10-09T01:03:36.750Z,37.7
2018-10-09T01:04:37.458Z,43.3
2018-10-09T01:05:38.580Z,41.4
2018-10-09T01:06:39.303Z,39.8
2018-10-09T01:07:40.022Z,45.0
2018-10-09T01:08:40.742Z,38.6
2018-10-09T01:09:41.473Z,35.4
2018-10-09T01:10:42.182Z,37.8
2018-10-09T01:11:42.935Z,42.0
2018-10-09T01:12:43.917Z,43.1
2018-10-09T01:13:44.618Z,44.9
2018-10-09T01:14:45.329Z,40.4
2018-10-09T01:15:46.050Z,45.3
2018-10-09T01:16:47.331Z,47.2
2018-10-09T01:17:48.038Z,46.4
2018-10-09T01:18:48.753Z,40.6
2018-10-09T01:19:49.455Z,42.0
2018-10-09T01:20:50.175Z,39.1
2018-10-09T01:21:50.891Z,42.7
2018-10-09T01:22:51.605Z,41.3
2018-10-09T01:23:52.576Z,44.9
2018-10-09T01:24:53.552Z,39.6
2018-10-09T01:25:54.281Z,44.8
2018-10-09T01:26:54.985Z,34.2
2018-10-09T01:27:55.753Z,41.3
2018-10-09T01:28:56.463Z,42.8
2018-10-09T01:29:57.418Z,38.2
2018-10-09T01:30:58.138Z,38.6
2018-10-09T01:31:58.872Z,41.1
2018-10-09T01:32:59.589Z,38.1
2018-10-09T01:34:02.239Z,37.7
2018-10-09T01:35:02.942Z,39.6
2018-10-09T01:36:03.655Z,42.5
2018-10-09T01:37:04.613Z,40.5
2018-10-09T01:38:05.665Z,39.4
2018-10-09T01:39:06.370Z,45.0
2018-10-09T01:40:07.079Z,38.9
2018-10-09T01:41:07.817Z,42.8
2018-10-09T01:42:08.532Z,41.5
2018-10-09T01:43:09.258Z,40.9
2018-10-09T01:44:09.968Z,41.7
2018-10-09T01:45:10.980Z,38.1
2018-10-09T01:46:11.688Z,50.3
2018-10-09T01:47:12.648Z,46.2
2018-10-09T01:48:13.366Z,47.5
2018-10-09T01:49:14.079Z,49.2
2018-10-09T01:50:14.802Z,45.2
2018-10-09T01:51:15.763Z,44.7
2018-10-09T01:52:16.474Z,44.6
2018-10-09T01:53:17.193Z,43.3
2018-10-09T01:54:17.906Z,41.5
2018-10-09T01:55:18.686Z,54.4
2018-10-09T01:56:19.402Z,52.2
2018-10-09T01:57:20.117Z,44.4
2018-10-09T01:58:20.836Z,48.8
2018-10-09T01:59:21.560Z,50.5
2018-10-09T02:00:22.281Z,52.4
2018-10-09T02:01:22.987Z,50.0
2018-10-09T02:02:23.945Z,52.5
2018-10-09T02:03:24.669Z,52.6
2018-10-09T02:04:25.392Z,53.7
2018-10-09T02:05:26.104Z,54.0
2018-10-09T02:06:26.825Z,53.0
2018-10-09T02:07:27.541Z,51.6
2018-10-09T02:08:28.302Z,58.3
2018-10-09T02:09:29.292Z,55.2
2018-10-09T02:10:30.012Z,50.0
2018-10-09T02:11:30.717Z,55.2
2018-10-09T02:12:31.433Z,52.4
2018-10-09T02:13:32.154Z,54.1
2018-10-09T02:14:32.854Z,53.5
2018-10-09T02:15:33.573Z,56.0
2018-10-09T02:16:34.284Z,55.6
2018-10-09T02:17:34.997Z,52.0
2018-10-09T02:18:35.714Z,53.6
2018-10-09T02:19:36.436Z,62.8
2018-10-09T02:20:37.157Z,57.7
2018-10-09T02:21:37.866Z,56.9
2018-10-09T02:22:38.584Z,58.7
2018-10-09T02:23:39.287Z,55.1
2018-10-09T02:24:39.998Z,55.1
2018-10-09T02:25:40.714Z,57.9
2018-10-09T02:26:41.451Z,55.5
2018-10-09T02:27:42.167Z,62.8
2018-10-09T02:28:42.908Z,54.7
2018-10-09T02:29:43.622Z,57.7
2018-10-09T02:30:44.335Z,55.5
2018-10-09T02:31:45.052Z,63.9
2018-10-09T02:32:45.762Z,56.8
2018-10-09T02:33:46.600Z,55.7
2018-10-09T02:34:47.208Z,55.5
2018-10-09T02:35:47.918Z,59.0
2018-10-09T02:36:48.628Z,57.0
2018-10-09T02:37:49.345Z,61.3
2018-10-09T02:38:50.060Z,63.6
2018-10-09T02:39:50.781Z,60.7
2018-10-09T02:40:51.490Z,58.9
2018-10-09T02:41:52.226Z,58.8
2018-10-09T02:42:52.942Z,57.8
2018-10-09T02:43:53.657Z,64.8
2018-10-09T02:44:54.374Z,66.1
2018-10-09T02:45:55.098Z,64.1
2018-10-09T02:46:55.812Z,66.1
2018-10-09T02:47:56.531Z,69.6
2018-10-09T02:48:57.244Z,59.8
2018-10-09T02:49:57.958Z,67.7
2018-10-09T02:50:58.692Z,63.4
2018-10-09T02:51:59.409Z,58.5
2018-10-09T02:53:00.181Z,64.2
2018-10-09T02:54:00.890Z,67.8
2018-10-09T02:55:01.605Z,71.2
2018-10-09T02:56:02.315Z,73.2
2018-10-09T02:57:03.027Z,71.3
2018-10-09T02:58:03.745Z,69.8
2018-10-09T02:59:04.452Z,67.1
2018-10-09T03:00:05.433Z,67.6
2018-10-09T03:01:06.167Z,73.7
2018-10-09T03:02:06.889Z,72.1
2018-10-09T03:03:07.607Z,69.3
2018-10-09T03:04:08.321Z,79.4
2018-10-09T03:05:09.045Z,70.9
2018-10-09T03:06:09.758Z,71.5
2018-10-09T03:07:10.477Z,71.5
2018-10-09T03:08:11.492Z,74.8
2018-10-09T03:09:12.205Z,71.9
2018-10-09T03:10:12.926Z,71.1
2018-10-09T03:11:13.642Z,65.3
2018-10-09T03:12:14.600Z,76.2
2018-10-09T03:13:15.326Z,86.2
2018-10-09T03:14:16.030Z,78.6
2018-10-09T03:15:16.756Z,70.8
2018-10-09T03:16:17.463Z,79.1
2018-10-09T03:17:18.176Z,74.6
2018-10-09T03:18:18.898Z,72.1
2018-10-09T03:19:19.606Z,79.3
2018-10-09T03:20:20.306Z,74.4
2018-10-09T03:21:21.018Z,72.6
2018-10-09T03:22:21.735Z,68.0
2018-10-09T03:23:22.441Z,74.0
2018-10-09T03:24:23.218Z,84.4
2018-10-09T03:25:23.924Z,76.8
2018-10-09T03:26:24.637Z,69.8
2018-10-09T03:27:25.349Z,81.4
2018-10-09T03:28:26.066Z,75.0
2018-10-09T03:29:26.791Z,64.6
2018-10-09T03:30:27.505Z,74.7
2018-10-09T03:31:28.220Z,71.8
2018-10-09T03:32:28.939Z,80.8
2018-10-09T03:33:29.654Z,78.7
2018-10-09T03:34:30.357Z,71.9
2018-10-09T03:35:31.063Z,81.7
2018-10-09T03:36:31.785Z,71.4
2018-10-09T03:37:32.516Z,73.2
2018-10-09T03:38:33.477Z,75.8
2018-10-09T03:39:34.241Z,85.0
2018-10-09T03:40:34.945Z,82.4
2018-10-09T03:41:35.671Z,76.7
2018-10-09T03:42:36.386Z,79.7
2018-10-09T03:43:37.404Z,100.3
2018-10-09T03:44:38.118Z,95.2
2018-10-09T03:45:39.077Z,88.9
2018-10-09T03:46:39.797Z,90.1
2018-10-09T03:47:40.509Z,88.0
2018-10-09T03:48:41.221Z,102.6
2018-10-09T03:49:41.931Z,85.6
2018-10-09T03:50:42.649Z,81.4
2018-10-09T03:51:43.357Z,88.7
2018-10-09T03:52:44.079Z,86.0
2018-10-09T03:53:44.783Z,94.5
2018-10-09T03:54:45.750Z,92.3
2018-10-09T03:55:46.459Z,94.0
2018-10-09T03:56:47.178Z,91.3
2018-10-09T03:57:47.896Z,96.5
2018-10-09T03:58:48.878Z,93.1
2018-10-09T03:59:49.588Z,87.7
2018-10-09T04:00:50.564Z,86.0
2018-10-09T04:01:51.282Z,80.8
2018-10-09T04:02:51.996Z,94.6
2018-10-09T04:03:52.707Z,100.7
2018-10-09T04:04:53.425Z,106.1
2018-10-09T04:05:54.196Z,112.7
2018-10-09T04:06:54.920Z,109.1
2018-10-09T04:07:55.634Z,116.3
2018-10-09T04:08:56.402Z,116.9
2018-10-09T04:09:57.343Z,121.3
2018-10-09T04:10:58.113Z,119.8
2018-10-09T04:11:58.818Z,130.1
2018-10-09T04:12:59.527Z,111.7
2018-10-09T04:14:00.282Z,126.4
2018-10-09T04:15:00.982Z,114.9
2018-10-09T04:16:01.696Z,122.7
2018-10-09T04:17:02.415Z,115.7
2018-10-09T04:18:03.132Z,124.7
2018-10-09T04:19:03.852Z,129.4
2018-10-09T04:20:04.567Z,119.2
2018-10-09T04:21:05.336Z,113.0
2018-10-09T04:22:06.049Z,111.9
2018-10-09T04:23:06.770Z,96.4
2018-10-09T04:24:07.745Z,112.6
2018-10-09T04:25:08.454Z,109.8
2018-10-09T04:26:09.174Z,114.9
2018-10-09T04:27:09.898Z,128.7
2018-10-09T04:28:10.614Z,118.4
2018-10-09T04:29:11.330Z,132.9
2018-10-09T04:30:12.044Z,133.2
2018-10-09T04:31:12.764Z,127.2
2018-10-09T04:32:13.534Z,112.4
2018-10-09T04:33:14.248Z,126.2
2018-10-09T04:34:14.950Z,115.2
2018-10-09T04:35:15.666Z,119.2
2018-10-09T04:36:16.377Z,134.7
2018-10-09T04:37:17.081Z,120.2
2018-10-09T04:38:18.044Z,126.7
2018-10-09T04:39:18.810Z,131.7
2018-10-09T04:40:19.537Z,131.7
2018-10-09T04:41:20.250Z,130.2
2018-10-09T04:42:20.957Z,117.5
2018-10-09T04:43:21.686Z,136.8
2018-10-09T04:44:22.448Z,128.7
2018-10-09T04:45:23.181Z,123.2
2018-10-09T04:46:23.891Z,118.3
2018-10-09T04:47:24.598Z,130.1
2018-10-09T04:48:25.305Z,124.3
2018-10-09T04:49:26.076Z,134.7
2018-10-09T04:50:26.800Z,130.8
2018-10-09T04:51:27.513Z,133.6
2018-10-09T04:52:28.478Z,139.0
2018-10-09T04:53:29.186Z,135.3
2018-10-09T04:54:29.901Z,131.1
2018-10-09T04:55:30.622Z,135.4
2018-10-09T04:56:31.331Z,136.8
2018-10-09T04:57:32.055Z,139.1
2018-10-09T04:58:32.770Z,138.2
2018-10-09T04:59:33.496Z,118.1
2018-10-09T05:00:34.265Z,145.3
2018-10-09T05:01:34.919Z,133.2
2018-10-09T05:02:35.879Z,145.7
2018-10-09T05:03:36.590Z,142.1
2018-10-09T05:04:37.312Z,147.0
2018-10-09T05:05:38.039Z,158.3
2018-10-09T05:06:38.764Z,127.7
2018-10-09T05:07:39.478Z,133.5
2018-10-09T05:08:40.203Z,129.2
2018-10-09T05:09:40.920Z,130.4
2018-10-09T05:10:41.625Z,127.5
2018-10-09T05:11:42.340Z,140.7
2018-10-09T05:12:43.315Z,137.2
2018-10-09T05:13:44.025Z,123.2
2018-10-09T05:14:44.741Z,125.4
2018-10-09T05:15:45.455Z,133.1
2018-10-09T05:16:46.166Z,129.5
2018-10-09T05:17:47.140Z,139.5
2018-10-09T05:18:47.843Z,133.4
2018-10-09T05:19:48.550Z,120.4
2018-10-09T05:20:49.255Z,139.0
2018-10-09T05:21:49.978Z,155.7
2018-10-09T05:22:50.741Z,160.0
2018-10-09T05:23:51.477Z,156.5
2018-10-09T05:24:52.193Z,147.0
2018-10-09T05:25:52.896Z,147.7
2018-10-09T05:26:53.857Z,137.6
2018-10-09T05:27:54.621Z,140.5
2018-10-09T05:28:55.336Z,137.7
2018-10-09T05:29:56.049Z,130.3
2018-10-09T05:30:56.826Z,132.3
2018-10-09T05:31:57.504Z,143.3
2018-10-09T05:32:58.515Z,143.3
2018-10-09T05:33:59.236Z,151.7
2018-10-09T05:34:59.970Z,139.6
2018-10-09T05:36:00.685Z,148.4
2018-10-09T05:37:01.401Z,135.6
2018-10-09T05:38:02.110Z,136.7
2018-10-09T05:39:02.822Z,137.1
2018-10-09T05:40:03.541Z,132.0
2018-10-09T05:41:04.501Z,131.6
2018-10-09T05:42:05.227Z,126.2
2018-10-09T05:43:05.942Z,131.3
2018-10-09T05:44:06.705Z,125.8
2018-10-09T05:45:07.392Z,139.0
2018-10-09T05:46:08.112Z,130.6
2018-10-09T05:47:08.837Z,126.2
2018-10-09T05:48:09.557Z,120.3
2018-10-09T05:49:10.286Z,126.8
2018-10-09T05:50:11.015Z,133.3
2018-10-09T05:51:11.741Z,132.9
2018-10-09T05:52:12.461Z,153.3
2018-10-09T05:53:13.180Z,128.1
2018-10-09T05:54:13.941Z,151.1
2018-10-09T05:55:14.690Z,144.7
2018-10-09T05:56:15.414Z,130.2
2018-10-09T05:57:16.137Z,120.4
2018-10-09T05:58:16.869Z,132.6
2018-10-09T05:59:17.571Z,141.8
2018-10-09T06:00:18.306Z,157.5
2018-10-09T06:01:19.018Z,156.1
2018-10-09T06:02:19.748Z,151.4
2018-10-09T06:03:20.467Z,136.2
2018-10-09T06:04:21.190Z,135.7
2018-10-09T06:05:21.899Z,131.6
2018-10-09T06:06:22.620Z,137.8
2018-10-09T06:07:23.329Z,129.5
2018-10-09T06:08:24.056Z,137.0
2018-10-09T06:09:24.780Z,126.3
2018-10-09T06:10:25.503Z,122.0
2018-10-09T06:11:26.218Z,134.5
2018-10-09T06:12:26.949Z,145.1
2018-10-09T06:13:27.919Z,140.0
2018-10-09T06:14:28.646Z,136.9
2018-10-09T06:15:29.396Z,127.6
2018-10-09T06:16:30.129Z,161.4
2018-10-09T06:17:30.848Z,149.2
2018-10-09T06:18:31.815Z,159.4
2018-10-09T06:19:32.535Z,162.8
2018-10-09T06:20:33.251Z,148.2
2018-10-09T06:21:33.973Z,144.1
2018-10-09T06:22:34.685Z,165.3
2018-10-09T06:23:35.412Z,155.1
2018-10-09T06:24:36.148Z,148.7
2018-10-09T06:25:36.861Z,124.8
2018-10-09T06:26:37.574Z,134.9
2018-10-09T06:27:38.315Z,122.3
2018-10-09T06:28:39.036Z,135.5
2018-10-09T06:29:39.756Z,149.3
2018-10-09T06:30:40.475Z,155.2
2018-10-09T06:31:41.199Z,135.3
2018-10-09T06:32:41.920Z,152.6
2018-10-09T06:33:42.653Z,125.1
2018-10-09T06:34:43.371Z,149.1
2018-10-09T06:35:44.105Z,159.9
2018-10-09T06:36:44.832Z,150.2
2018-10-09T06:37:45.569Z,161.3
2018-10-09T06:38:46.330Z,160.3
2018-10-09T06:39:47.028Z,160.3
2018-10-09T06:40:47.780Z,163.3
2018-10-09T06:41:48.561Z,164.1
2018-10-09T06:42:49.427Z,167.5
2018-10-09T06:43:50.074Z,145.7
2018-10-09T06:44:51.048Z,128.4
2018-10-09T06:45:51.767Z,149.7
2018-10-09T06:46:52.494Z,137.9
2018-10-09T06:47:53.220Z,136.3
2018-10-09T06:48:53.930Z,131.7
2018-10-09T06:49:54.657Z,140.5
2018-10-09T06:50:55.377Z,144.9
2018-10-09T06:51:56.096Z,129.4
2018-10-09T06:52:57.061Z,141.9
2018-10-09T06:53:58.025Z,135.1
2018-10-09T06:54:58.573Z,138.3
2018-10-09T06:55:59.246Z,125.2
2018-10-09T06:56:59.969Z,130.9
2018-10-09T06:58:00.709Z,135.0
2018-10-09T06:59:01.422Z,122.8
2018-10-09T07:00:02.244Z,133.4
2018-10-09T07:01:02.878Z,144.5
2018-10-09T07:02:03.607Z,136.6
2018-10-09T07:03:04.582Z,127.5
2018-10-09T07:05:06.993Z,121.1
2018-10-09T07:06:07.730Z,118.0
2018-10-09T07:07:08.465Z,118.9
2018-10-09T07:08:09.402Z,144.3
2018-10-09T07:09:10.117Z,124.7
2018-10-09T07:10:10.839Z,117.1
2018-10-09T07:11:11.642Z,114.4
2018-10-09T07:12:12.326Z,114.9
2018-10-09T07:13:13.100Z,111.4
2018-10-09T07:14:13.822Z,109.1
2018-10-09T07:15:14.544Z,113.6
2018-10-09T07:16:15.270Z,122.9
2018-10-09T07:17:15.993Z,115.3
2018-10-09T07:18:16.967Z,141.6
2018-10-09T07:19:17.697Z,133.9
2018-10-09T07:20:18.414Z,113.0
2018-10-09T07:21:19.128Z,127.4
2018-10-09T07:22:19.858Z,126.9
2018-10-09T07:23:20.643Z,127.0
2018-10-09T07:24:21.344Z,117.1
2018-10-09T07:25:22.091Z,113.4
2018-10-09T07:26:22.823Z,116.8
2018-10-09T07:27:23.538Z,100.1
2018-10-09T07:28:24.280Z,98.4
2018-10-09T07:29:25.001Z,101.6
2018-10-09T07:30:25.736Z,98.8
2018-10-09T07:31:26.456Z,97.9
2018-10-09T07:32:27.171Z,96.1
2018-10-09T07:33:27.887Z,98.9
2018-10-09T07:34:28.601Z,97.7
2018-10-09T07:35:29.341Z,89.3
2018-10-09T07:36:30.053Z,85.6
2018-10-09T07:37:31.068Z,92.0
2018-10-09T07:38:31.759Z,85.3
2018-10-09T07:39:32.484Z,81.7
2018-10-09T07:40:33.495Z,89.7
2018-10-09T07:41:34.220Z,80.5
2018-10-09T07:42:34.945Z,87.0
2018-10-09T07:43:35.685Z,87.7
2018-10-09T07:44:36.399Z,89.2
2018-10-09T07:45:37.170Z,87.2
2018-10-09T07:46:37.884Z,86.4
2018-10-09T07:47:38.598Z,80.0
2018-10-09T07:48:39.329Z,79.0
2018-10-09T07:49:40.055Z,88.8
2018-10-09T07:50:40.775Z,84.0
2018-10-09T07:51:41.500Z,89.5
2018-10-09T07:52:42.274Z,76.8
2018-10-09T07:53:42.959Z,70.1
2018-10-09T07:54:43.674Z,68.0
2018-10-09T07:55:44.401Z,47.0
2018-10-09T07:56:45.114Z,47.8
2018-10-09T07:57:45.894Z,44.2
2018-10-09T07:58:46.675Z,39.1
2018-10-09T07:59:47.338Z,37.7
2018-10-09T08:00:48.069Z,29.5
2018-10-09T08:01:48.798Z,27.8
2018-10-09T08:02:49.575Z,22.2
2018-10-09T08:03:50.308Z,21.4
2018-10-09T08:04:51.075Z,22.5
2018-10-09T08:05:51.767Z,22.1
2018-10-09T08:06:52.493Z,15.9
2018-10-09T08:07:53.237Z,19.8
2018-10-09T08:08:53.965Z,20.4
2018-10-09T08:09:54.686Z,25.4
2018-10-09T08:10:55.431Z,23.4
2018-10-09T08:11:56.141Z,18.7
2018-10-09T08:12:57.126Z,21.0
2018-10-09T08:13:57.863Z,19.9
2018-10-09T08:14:58.575Z,18.2
2018-10-09T08:15:59.317Z,23.2
2018-10-09T08:17:00.035Z,16.4
2018-10-09T08:18:00.762Z,16.9
2018-10-09T08:19:01.495Z,19.5
2018-10-09T08:20:02.225Z,24.7
2018-10-09T08:21:02.944Z,20.2
2018-10-09T08:22:03.682Z,26.4
2018-10-09T08:23:04.413Z,23.3
2018-10-09T08:24:05.407Z,32.5
2018-10-09T08:25:06.190Z,27.5
2018-10-09T08:26:06.915Z,24.2
2018-10-09T08:27:07.642Z,27.2
2018-10-09T08:28:08.409Z,23.7
2018-10-09T08:29:09.120Z,27.0
2018-10-09T08:30:09.891Z,25.9
2018-10-09T08:31:10.618Z,35.8
2018-10-09T08:32:11.369Z,34.7
2018-10-09T08:33:12.085Z,31.8
2018-10-09T08:34:12.804Z,29.6
2018-10-09T08:35:13.534Z,27.1
2018-10-09T08:36:14.259Z,28.6
2018-10-09T08:37:14.984Z,34.0
2018-10-09T08:38:15.718Z,30.6
2018-10-09T08:39:16.451Z,21.6
2018-10-09T08:40:17.290Z,22.5
2018-10-09T08:41:17.952Z,23.4
2018-10-09T08:42:18.683Z,24.9
2018-10-09T08:43:19.414Z,20.0
2018-10-09T08:44:20.140Z,24.8
2018-10-09T08:45:20.872Z,27.2
2018-10-09T08:46:21.691Z,29.9
2018-10-09T08:47:22.332Z,24.5
2018-10-09T08:48:23.061Z,18.3
2018-10-09T08:49:23.808Z,21.0
2018-10-09T08:50:24.783Z,20.0
2018-10-09T08:51:25.519Z,18.0
2018-10-09T08:52:26.553Z,21.6
2018-10-09T08:53:27.281Z,20.5
2018-10-09T08:54:28.011Z,23.4
2018-10-09T08:55:28.742Z,16.2
2018-10-09T08:56:29.465Z,17.3
2018-10-09T08:57:30.289Z,16.4
2018-10-09T08:58:30.992Z,21.1
2018-10-09T08:59:31.728Z,16.8
2018-10-09T09:00:32.460Z,20.1
2018-10-09T09:01:33.436Z,19.6
2018-10-09T09:02:34.221Z,19.0
2018-10-09T09:03:34.987Z,21.7
2018-10-09T09:04:35.699Z,15.8
2018-10-09T09:05:36.426Z,20.3
2018-10-09T09:06:37.166Z,18.5
2018-10-09T09:07:37.907Z,17.4
2018-10-09T09:08:38.630Z,25.6
2018-10-09T09:09:39.380Z,17.4
2018-10-09T09:10:40.351Z,15.3
2018-10-09T09:11:41.066Z,22.1
2018-10-09T09:12:41.848Z,17.5
2018-10-09T09:13:42.589Z,23.2
2018-10-09T09:14:43.315Z,17.5
2018-10-09T09:15:44.293Z,18.4
2018-10-09T09:16:45.020Z,16.3
2018-10-09T09:17:45.816Z,18.2
2018-10-09T09:18:46.545Z,21.7
2018-10-09T09:19:47.322Z,16.4
2018-10-09T09:20:48.098Z,16.8
2018-10-09T09:21:48.788Z,24.4
2018-10-09T09:22:49.563Z,16.8
2018-10-09T09:23:50.318Z,21.5
2018-10-09T09:24:51.063Z,20.0
2018-10-09T09:25:51.792Z,20.9
2018-10-09T09:26:52.549Z,24.2
2018-10-09T09:27:53.316Z,20.8
2018-10-09T09:28:53.987Z,17.9
2018-10-09T09:29:54.725Z,18.8
2018-10-09T09:30:55.448Z,19.4
2018-10-09T09:31:56.177Z,17.8
2018-10-09T09:32:56.939Z,19.0
2018-10-09T09:33:57.645Z,19.0
2018-10-09T09:34:58.410Z,27.3
2018-10-09T09:35:59.143Z,18.2
2018-10-09T09:36:59.891Z,19.7
2018-10-09T09:38:00.616Z,18.5
2018-10-09T09:39:01.386Z,18.4
2018-10-09T09:40:02.416Z,25.8
2018-10-09T09:41:03.145Z,21.9
2018-10-09T09:42:04.662Z,19.5
2018-10-09T09:43:05.439Z,17.9
2018-10-09T09:44:06.325Z,19.7
2018-10-09T09:45:07.067Z,18.1
2018-10-09T09:46:07.822Z,20.5
2018-10-09T09:47:08.535Z,19.5
2018-10-09T09:48:09.572Z,16.9
2018-10-09T09:49:10.306Z,21.2
2018-10-09T09:50:11.296Z,20.1
2018-10-09T09:51:12.015Z,17.1
2018-10-09T09:52:12.791Z,20.2
2018-10-09T09:53:13.505Z,22.7
2018-10-09T09:54:14.550Z,17.6
2018-10-09T09:55:15.289Z,19.8
2018-10-09T09:56:16.018Z,22.7
2018-10-09T09:57:16.770Z,15.1
2018-10-09T09:58:17.596Z,21.6
2018-10-09T09:59:18.273Z,23.5
2018-10-09T10:00:19.003Z,22.4
2018-10-09T10:01:19.748Z,21.4
2018-10-09T10:02:20.465Z,23.9
2018-10-09T10:03:21.202Z,24.7
2018-10-09T10:04:21.930Z,24.7
2018-10-09T10:05:22.672Z,27.2
2018-10-09T10:06:23.426Z,28.1
2018-10-09T10:07:24.168Z,28.9
2018-10-09T10:08:24.900Z,26.3
2018-10-09T10:09:25.765Z,26.5
2018-10-09T10:10:26.367Z,25.1
2018-10-09T10:11:27.102Z,26.6
2018-10-09T10:12:28.093Z,26.4
2018-10-09T10:13:29.086Z,23.3
2018-10-09T10:14:29.825Z,27.6
2018-10-09T10:15:30.560Z,28.0
2018-10-09T10:16:31.291Z,25.0
2018-10-09T10:17:32.032Z,26.1
2018-10-09T10:18:32.781Z,24.8
2018-10-09T10:19:33.497Z,29.1
2018-10-09T10:20:34.478Z,26.6
2018-10-09T10:21:35.473Z,24.1
2018-10-09T10:22:36.264Z,31.0
2018-10-09T10:23:36.988Z,28.0
2018-10-09T10:24:37.970Z,32.8
2018-10-09T10:25:38.709Z,30.2
2018-10-09T10:26:39.446Z,28.2
2018-10-09T10:27:40.184Z,30.9
2018-10-09T10:28:40.923Z,33.2
2018-10-09T10:29:41.650Z,27.2
2018-10-09T10:30:42.375Z,31.0
2018-10-09T10:31:43.378Z,30.6
2018-10-09T10:32:44.099Z,29.7
2018-10-09T10:33:44.846Z,25.7
2018-10-09T10:34:45.571Z,28.0
2018-10-09T10:35:46.398Z,27.8
2018-10-09T10:36:47.086Z,29.5
2018-10-09T10:37:47.855Z,27.1
2018-10-09T10:38:48.575Z,28.7
2018-10-09T10:39:49.603Z,27.6
2018-10-09T10:40:50.334Z,28.2
2018-10-09T10:41:51.063Z,26.4
2018-10-09T10:42:52.136Z,28.1
2018-10-09T10:43:53.142Z,23.0
2018-10-09T10:44:53.871Z,26.6
2018-10-09T10:45:54.607Z,27.9
2018-10-09T10:46:55.632Z,26.6
2018-10-09T10:47:56.346Z,30.6
2018-10-09T10:48:57.337Z,23.7
2018-10-09T10:49:58.059Z,26.9
2018-10-09T10:50:59.418Z,20.6
2018-10-09T10:52:00.232Z,25.7
2018-10-09T10:53:01.004Z,23.4
2018-10-09T10:54:01.869Z,21.5
2018-10-09T10:55:02.988Z,24.8
2018-10-09T10:56:03.690Z,21.3
2018-10-09T10:57:04.460Z,23.8
2018-10-09T10:58:05.194Z,26.8
2018-10-09T10:59:05.927Z,23.1
2018-10-09T11:00:06.689Z,22.6
2018-10-09T11:01:07.418Z,24.0
2018-10-09T11:02:08.154Z,23.9
2018-10-09T11:03:08.897Z,25.1
2018-10-09T11:04:09.629Z,22.2
2018-10-09T11:05:10.360Z,26.2
2018-10-09T11:06:11.113Z,23.9
2018-10-09T11:07:11.893Z,23.5
2018-10-09T11:08:12.644Z,22.0
2018-10-09T11:09:13.345Z,22.5
2018-10-09T11:10:14.109Z,24.2
2018-10-09T11:11:14.847Z,20.9
2018-10-09T11:12:15.590Z,24.2
2018-10-09T11:13:16.316Z,26.5
2018-10-09T11:14:17.064Z,19.9
2018-10-09T11:15:17.808Z,21.9
2018-10-09T11:16:18.554Z,24.0
2018-10-09T11:17:19.390Z,26.5
2018-10-09T11:18:20.137Z,22.8
2018-10-09T11:19:20.866Z,22.9
2018-10-09T11:20:21.604Z,22.5
2018-10-09T11:21:22.425Z,28.0
2018-10-09T11:22:23.097Z,27.0
2018-10-09T11:23:23.827Z,21.0
2018-10-09T11:24:24.595Z,24.9
2018-10-09T11:25:25.587Z,19.5
2018-10-09T11:26:26.326Z,23.6
2018-10-09T11:27:27.069Z,18.6
2018-10-09T11:28:27.816Z,21.2
2018-10-09T11:29:28.876Z,19.2
2018-10-09T11:30:29.603Z,22.6
2018-10-09T11:31:30.339Z,18.2
2018-10-09T11:32:31.090Z,19.4
2018-10-09T11:33:31.819Z,15.9
2018-10-09T11:34:32.878Z,21.0
2018-10-09T11:35:33.605Z,18.7
2018-10-09T11:36:34.336Z,17.8
2018-10-09T11:37:35.081Z,19.7
2018-10-09T11:38:36.088Z,21.6
2018-10-09T11:39:36.860Z,21.8
2018-10-09T11:40:37.590Z,21.6
2018-10-09T11:41:38.327Z,18.1
2018-10-09T11:42:39.088Z,20.3
2018-10-09T11:43:39.799Z,21.7
2018-10-09T11:44:40.526Z,19.4
2018-10-09T11:45:41.266Z,23.6
2018-10-09T11:46:42.000Z,20.3
2018-10-09T11:47:42.743Z,18.6
2018-10-09T11:48:43.720Z,21.1
2018-10-09T11:49:44.511Z,19.0
2018-10-09T11:50:45.246Z,28.7
2018-10-09T11:51:45.970Z,22.8
2018-10-09T11:52:46.701Z,18.5
2018-10-09T11:53:47.426Z,21.2
2018-10-09T11:54:48.160Z,17.6
2018-10-09T11:55:48.897Z,20.5
2018-10-09T11:56:49.675Z,17.4
2018-10-09T11:57:50.413Z,19.6
2018-10-09T11:58:51.200Z,23.5
2018-10-09T11:59:51.880Z,21.0
2018-10-09T12:00:52.617Z,19.7
2018-10-09T12:01:53.356Z,16.6
2018-10-09T12:02:54.196Z,24.2
2018-10-09T12:03:54.839Z,20.5
2018-10-09T12:04:55.586Z,19.2
2018-10-09T12:05:56.332Z,21.3
2018-10-09T12:06:57.076Z,18.9
2018-10-09T12:07:57.811Z,21.5
2018-10-09T12:08:58.573Z,21.5
2018-10-09T12:09:59.294Z,20.9
2018-10-09T12:11:00.022Z,21.1
2018-10-09T12:12:00.759Z,26.3
2018-10-09T12:13:01.497Z,21.4
2018-10-09T12:14:02.284Z,18.4
2018-10-09T12:15:02.988Z,16.1
2018-10-09T12:16:03.984Z,18.5
2018-10-09T12:17:04.728Z,19.5
2018-10-09T12:18:05.463Z,20.2
2018-10-09T12:19:06.203Z,21.2
2018-10-09T12:20:06.948Z,23.4
2018-10-09T12:21:07.677Z,19.9
2018-10-09T12:22:08.413Z,21.3
2018-10-09T12:23:09.153Z,17.3
2018-10-09T12:24:09.878Z,20.6
2018-10-09T12:25:10.630Z,23.5
2018-10-09T12:26:11.608Z,22.7
2018-10-09T12:27:12.428Z,24.1
2018-10-09T12:28:13.066Z,16.2
2018-10-09T12:29:13.798Z,17.8
2018-10-09T12:30:14.531Z,15.6
2018-10-09T12:31:15.281Z,20.5
2018-10-09T12:32:16.025Z,17.2
2018-10-09T12:33:17.011Z,17.6
2018-10-09T12:34:17.756Z,18.8
2018-10-09T12:35:18.483Z,19.4
2018-10-09T12:36:19.231Z,18.8
2018-10-09T12:37:19.964Z,20.3
2018-10-09T12:38:20.727Z,21.0
2018-10-09T12:39:21.433Z,21.1
2018-10-09T12:40:22.166Z,23.9
2018-10-09T12:41:22.901Z,25.5
2018-10-09T12:42:23.699Z,21.9
2018-10-09T12:43:24.437Z,22.5
2018-10-09T12:44:25.215Z,20.7
2018-10-09T12:45:25.899Z,24.3
2018-10-09T12:46:26.624Z,21.6
2018-10-09T12:47:27.416Z,22.4
2018-10-09T12:48:28.156Z,20.8
2018-10-09T12:49:28.882Z,18.2
2018-10-09T12:50:29.623Z,23.2
2018-10-09T12:51:30.353Z,23.7
2018-10-09T12:52:31.082Z,21.7
2018-10-09T12:53:31.815Z,21.9
2018-10-09T12:54:32.567Z,23.1
2018-10-09T12:55:33.295Z,22.9
2018-10-09T12:56:34.029Z,20.0
2018-10-09T12:57:34.774Z,20.5
2018-10-09T12:58:35.581Z,16.6
2018-10-09T12:59:36.240Z,19.3
2018-10-09T13:00:36.984Z,23.3
2018-10-09T13:01:37.724Z,21.3
2018-10-09T13:02:38.722Z,16.7
2018-10-09T13:03:39.451Z,19.6
2018-10-09T13:04:40.187Z,19.4
2018-10-09T13:05:40.917Z,18.5
2018-10-09T13:06:41.913Z,19.1
2018-10-09T13:07:42.685Z,22.4
2018-10-09T13:08:43.417Z,18.1
2018-10-09T13:09:44.166Z,22.8
2018-10-09T13:10:44.887Z,16.1
2018-10-09T13:11:45.620Z,18.0
2018-10-09T13:12:46.346Z,17.7
2018-10-09T13:13:47.080Z,18.5
2018-10-09T13:14:47.857Z,19.4
2018-10-09T13:15:48.579Z,20.1
2018-10-09T13:16:49.336Z,22.4
2018-10-09T13:17:50.062Z,18.1
2018-10-09T13:18:50.816Z,20.5
2018-10-09T13:19:51.588Z,19.9
2018-10-09T13:20:52.426Z,23.7
2018-10-09T13:21:53.158Z,24.9
2018-10-09T13:22:53.821Z,18.8